Bonaria — ICUS — position and weather

sailwx.info

Track history (hours):
 
Tides and Currents Weather Stations Pressure Air Temp Water Temp Dewpoint Dewpoint Depression Visibility Wind Speed Wind Dir Waves Ship Positions

Bonaria

Last reported at 2017-Dec-11 16:51 UTC. Time now 2017-Dec-13 22:40 UTC.
Position N 38°08' E 013°22'.

Length 214 m; draft 7 m.

Type: Ship. MMSI: 247322400.

Date/timePositionNaut miles runAvg speedWind from/ knotsBaromVisibWave heightAir tempDewpointWater temp
2017-Dec-11 16:51N 38°08' E 013°22'0 0.0
2017-Dec-11 16:24N 38°08' E 013°22'0 0.0
2017-Dec-11 15:54N 38°08' E 013°22'0 0.0
2017-Dec-11 15:09N 38°08' E 013°22'0 0.0
2017-Dec-11 14:54N 38°08' E 013°22'0 0.0
2017-Dec-11 14:30N 38°08' E 013°22'0 0.0
2017-Dec-11 14:00N 38°08' E 013°22'0 0.0
2017-Dec-11 13:30N 38°08' E 013°22'0 0.0
2017-Dec-11 13:00N 38°08' E 013°22'0 0.0
2017-Dec-11 12:30N 38°08' E 013°22'0 0.0
2017-Dec-11 12:00N 38°08' E 013°22'0 0.0
2017-Dec-11 11:30N 38°08' E 013°22'0 0.0
2017-Dec-11 11:00N 38°08' E 013°22'0 0.0
2017-Dec-11 10:30N 38°08' E 013°22'0 0.0
2017-Dec-11 10:00N 38°08' E 013°22'0 0.0
2017-Dec-11 09:30N 38°08' E 013°22'0 0.0
2017-Dec-11 09:00N 38°08' E 013°22'0 0.0
2017-Dec-11 08:30N 38°08' E 013°22'0 0.0
2017-Dec-11 08:00N 38°08' E 013°22'0 0.0
2017-Dec-11 07:30N 38°08' E 013°22'0 0.0
2017-Dec-11 07:00N 38°08' E 013°22'0 0.0
2017-Dec-11 06:30N 38°08' E 013°22'0 0.0
2017-Dec-11 06:00N 38°08' E 013°22'0 0.0
2017-Dec-11 05:30N 38°08' E 013°22'2 4.3
2017-Dec-11 05:00N 38°09' E 013°24'4 8.9
2017-Dec-11 04:30N 38°13' E 013°25'5 9.1
2017-Dec-11 04:00N 38°18' E 013°27'5 9.3
2017-Dec-11 03:30N 38°22' E 013°28'612.0
2017-Dec-11 03:00N 38°28' E 013°30'918.6
2017-Dec-11 02:30N 38°37' E 013°32'1018.7
2017-Dec-11 02:00N 38°46' E 013°35'10720.0
2017-Dec-10 20:40N 40°31' E 014°04'320.3
2017-Dec-10 20:30N 40°34' E 014°06'1020.1
2017-Dec-10 20:00N 40°42' E 014°12'915.9
2017-Dec-10 19:28N 40°50' E 014°16'0 0.2
2017-Dec-10 18:52N 40°50' E 014°16'0 0.0
2017-Dec-10 18:22N 40°50' E 014°16'0 0.0
2017-Dec-10 17:52N 40°50' E 014°16'0 0.0
2017-Dec-10 17:22N 40°50' E 014°16'0 0.0
2017-Dec-10 16:52N 40°50' E 014°16'0 0.0
2017-Dec-10 16:22N 40°50' E 014°16'0 0.0
2017-Dec-10 15:52N 40°50' E 014°16'0 0.0
2017-Dec-10 15:22N 40°50' E 014°16'0 0.0
2017-Dec-10 14:52N 40°50' E 014°16'0 0.0
2017-Dec-10 14:22N 40°50' E 014°16'0 0.0
2017-Dec-10 13:58N 40°50' E 014°16'0 0.0
2017-Dec-10 13:28N 40°50' E 014°16'0 0.0
2017-Dec-10 12:52N 40°50' E 014°16'0 0.0
2017-Dec-10 12:28N 40°50' E 014°16'0 0.0
2017-Dec-10 11:58N 40°50' E 014°16'0 0.0
2017-Dec-10 11:28N 40°50' E 014°16'0 0.0
2017-Dec-10 10:46N 40°50' E 014°16'0 0.0
2017-Dec-10 10:28N 40°50' E 014°16'0 0.0
2017-Dec-10 09:58N 40°50' E 014°16'0 0.0
2017-Dec-10 09:28N 40°50' E 014°16'0 0.0
2017-Dec-10 08:58N 40°50' E 014°16'0 0.0
2017-Dec-10 08:28N 40°50' E 014°16'0 0.0
2017-Dec-10 07:46N 40°50' E 014°16'0 0.0
2017-Dec-10 07:28N 40°50' E 014°16'11813.2
2017-Dec-09 22:33N 38°57' E 013°34'218.0
2017-Dec-09 22:27N 38°55' E 013°34'817.6
2017-Dec-09 22:01N 38°48' E 013°34'917.4
2017-Dec-09 21:31N 38°39' E 013°34'917.4
2017-Dec-09 21:01N 38°30' E 013°32'917.5
2017-Dec-09 20:31N 38°22' E 013°29'917.7
2017-Dec-09 20:01N 38°13' E 013°27'713.4
2017-Dec-09 19:30N 38°08' E 013°22'0 0.5
2017-Dec-09 19:00N 38°08' E 013°22'0 0.0
2017-Dec-09 18:30N 38°08' E 013°22'0 0.0
2017-Dec-09 18:00N 38°08' E 013°22'0 0.0
2017-Dec-09 17:30N 38°08' E 013°22'0 0.0
2017-Dec-09 17:00N 38°08' E 013°22'0 0.0
2017-Dec-09 16:30N 38°08' E 013°22'0 0.0
2017-Dec-09 16:00N 38°08' E 013°22'0 0.0
2017-Dec-09 15:30N 38°08' E 013°22'0 0.0
2017-Dec-09 15:00N 38°08' E 013°22'0 0.0
2017-Dec-09 14:30N 38°08' E 013°22'0 0.0
2017-Dec-09 14:00N 38°08' E 013°22'0 0.0
2017-Dec-09 13:30N 38°08' E 013°22'0 0.0
2017-Dec-09 13:00N 38°08' E 013°22'0 0.0
2017-Dec-09 12:30N 38°08' E 013°22'0 0.0
2017-Dec-09 12:00N 38°08' E 013°22'0 0.0
2017-Dec-09 11:30N 38°08' E 013°22'0 0.0
2017-Dec-09 11:00N 38°08' E 013°22'0 0.0
2017-Dec-09 10:27N 38°08' E 013°22'0 0.0
2017-Dec-09 10:00N 38°08' E 013°22'0 0.0
2017-Dec-09 09:30N 38°08' E 013°22'0 0.0
2017-Dec-09 09:00N 38°08' E 013°22'0 0.0
2017-Dec-09 08:30N 38°08' E 013°22'0 0.0
2017-Dec-09 08:00N 38°08' E 013°22'0 0.0
2017-Dec-09 07:30N 38°08' E 013°22'0 0.0
2017-Dec-09 07:00N 38°08' E 013°22'0 0.0
2017-Dec-09 06:30N 38°08' E 013°22'0 0.0
2017-Dec-09 06:00N 38°08' E 013°22'0 0.0
2017-Dec-09 05:30N 38°08' E 013°22'2 3.1
2017-Dec-09 05:00N 38°08' E 013°24'611.0
2017-Dec-09 04:30N 38°14' E 013°26'510.9
2017-Dec-09 04:00N 38°19' E 013°27'510.9
2017-Dec-09 03:30N 38°24' E 013°29'611.1
2017-Dec-09 03:00N 38°30' E 013°30'919.0
2017-Dec-09 02:31N 38°39' E 013°33'1019.1
2017-Dec-09 02:00N 38°48' E 013°35'10619.4
2017-Dec-08 20:31N 40°32' E 014°06'011.4
2017-Dec-08 20:30N 40°32' E 014°07'918.3
2017-Dec-08 20:01N 40°40' E 014°11'1019.8
2017-Dec-08 19:30N 40°49' E 014°17'1 2.0
2017-Dec-08 18:51N 40°50' E 014°16'0 0.0
2017-Dec-08 18:21N 40°50' E 014°16'0 0.0
2017-Dec-08 17:45N 40°50' E 014°16'0 0.0
2017-Dec-08 16:51N 40°50' E 014°16'0 0.0
2017-Dec-08 16:21N 40°50' E 014°16'0 0.0
2017-Dec-08 15:51N 40°50' E 014°16'0 0.0
2017-Dec-08 15:21N 40°50' E 014°16'0 0.0
2017-Dec-08 14:51N 40°50' E 014°16'0 0.0
2017-Dec-08 14:21N 40°50' E 014°16'0 0.0
2017-Dec-08 13:51N 40°50' E 014°16'0 0.0
2017-Dec-08 13:21N 40°50' E 014°16'0 0.0
2017-Dec-08 12:57N 40°50' E 014°16'0 0.0
2017-Dec-08 12:21N 40°50' E 014°16'0 0.0
2017-Dec-08 11:57N 40°50' E 014°16'0 0.0
2017-Dec-08 11:27N 40°50' E 014°16'0 0.0
2017-Dec-08 10:57N 40°50' E 014°16'0 0.0
2017-Dec-08 10:27N 40°50' E 014°16'0 0.0
2017-Dec-08 09:57N 40°50' E 014°16'0 0.0
2017-Dec-08 09:27N 40°50' E 014°16'0 0.0
2017-Dec-08 08:45N 40°50' E 014°16'0 0.0
2017-Dec-08 08:27N 40°50' E 014°16'0 0.0
2017-Dec-08 07:57N 40°50' E 014°16'0 0.0
2017-Dec-08 07:27N 40°50' E 014°16'13113.6
2017-Dec-07 21:51N 38°44' E 013°35'617.6
2017-Dec-07 21:30N 38°38' E 013°34'918.0
2017-Dec-07 21:00N 38°29' E 013°31'918.1
2017-Dec-07 20:30N 38°20' E 013°28'917.6
2017-Dec-07 20:00N 38°11' E 013°26'5 9.7
2017-Dec-07 19:31N 38°08' E 013°22'0 0.3
2017-Dec-07 18:57N 38°08' E 013°22'0 0.0
2017-Dec-07 18:30N 38°08' E 013°22'0 0.0
2017-Dec-07 18:00N 38°08' E 013°22'0 0.0
2017-Dec-07 17:30N 38°08' E 013°22'0 0.0
2017-Dec-07 17:00N 38°08' E 013°22'0 0.0
2017-Dec-07 16:30N 38°08' E 013°22'0 0.0
2017-Dec-07 16:00N 38°08' E 013°22'0 0.0
2017-Dec-07 15:30N 38°08' E 013°22'0 0.0
2017-Dec-07 15:00N 38°08' E 013°22'0 0.0
2017-Dec-07 14:30N 38°08' E 013°22'0 0.0
2017-Dec-07 14:00N 38°08' E 013°22'0 0.0
2017-Dec-07 13:30N 38°08' E 013°22'0 0.0
2017-Dec-07 13:00N 38°08' E 013°22'0 0.0
2017-Dec-07 12:30N 38°08' E 013°22'0 0.0
2017-Dec-07 12:00N 38°08' E 013°22'0 0.0
2017-Dec-07 11:30N 38°08' E 013°22'0 0.0
2017-Dec-07 11:00N 38°08' E 013°22'0 0.0
2017-Dec-07 10:30N 38°08' E 013°22'0 0.0
2017-Dec-07 09:57N 38°08' E 013°22'0 0.0
2017-Dec-07 09:30N 38°08' E 013°22'0 0.0
2017-Dec-07 09:00N 38°08' E 013°22'0 0.0
2017-Dec-07 08:30N 38°08' E 013°22'0 0.0
2017-Dec-07 08:00N 38°08' E 013°22'0 0.0
2017-Dec-07 07:27N 38°08' E 013°22'0 0.0
2017-Dec-07 07:00N 38°08' E 013°22'0 0.0
2017-Dec-07 06:27N 38°08' E 013°22'0 0.0
2017-Dec-07 06:00N 38°08' E 013°22'0 0.5
2017-Dec-07 05:31N 38°08' E 013°22'4 8.0
2017-Dec-07 05:01N 38°11' E 013°25'816.5
2017-Dec-07 04:30N 38°19' E 013°27'917.3
2017-Dec-07 04:00N 38°28' E 013°30'917.6
2017-Dec-07 03:31N 38°36' E 013°32'1017.7
2017-Dec-07 02:57N 38°46' E 013°35'11317.7
2017-Dec-06 20:35N 40°36' E 014°08'  
2017-Dec-04 10:06N 40°50' E 014°16'0 0.0
2017-Dec-04 09:36N 40°50' E 014°16'0 0.1
2017-Dec-04 09:18N 40°50' E 014°16'0 0.0
2017-Dec-04 08:54N 40°50' E 014°16'0 0.0
2017-Dec-04 08:24N 40°50' E 014°16'0 0.0
2017-Dec-04 07:54N 40°50' E 014°16'0 0.0
2017-Dec-04 07:28N 40°50' E 014°16'1 2.9
2017-Dec-04 06:58N 40°49' E 014°17'244 6.9
2017-Dec-02 19:20N 38°59' E 009°33'821.0
2017-Dec-02 18:57N 39°02' E 009°24'1124.3
2017-Dec-02 18:30N 39°08' E 009°11'611.8
2017-Dec-02 18:00N 39°13' E 009°06'0 0.0
2017-Dec-02 17:29N 39°13' E 009°06'0 0.0
2017-Dec-02 16:59N 39°13' E 009°06'0 0.0
2017-Dec-02 16:29N 39°13' E 009°06'0 0.0
2017-Dec-02 15:59N 39°13' E 009°06'0 0.0
2017-Dec-02 15:29N 39°13' E 009°06'0 0.0
2017-Dec-02 14:59N 39°13' E 009°06'0 0.0
2017-Dec-02 14:29N 39°13' E 009°06'0 0.0
2017-Dec-02 13:59N 39°13' E 009°06'0 0.0
2017-Dec-02 13:26N 39°13' E 009°06'0 0.0
2017-Dec-02 12:59N 39°13' E 009°06'0 0.0
2017-Dec-02 12:29N 39°13' E 009°06'0 0.0
2017-Dec-02 11:59N 39°13' E 009°06'0 0.0
2017-Dec-02 11:29N 39°13' E 009°06'0 0.0
2017-Dec-02 10:59N 39°13' E 009°06'0 0.0
2017-Dec-02 10:29N 39°13' E 009°06'0 0.0
2017-Dec-02 09:59N 39°13' E 009°06'0 0.0
2017-Dec-02 09:29N 39°13' E 009°06'0 0.0
2017-Dec-02 08:59N 39°13' E 009°06'2 3.5
2017-Dec-02 08:30N 39°11' E 009°07'918.2
2017-Dec-02 08:00N 39°06' E 009°17'1220.1
2017-Dec-02 07:24N 38°59' E 009°30'918.2
2017-Dec-02 06:53N 39°04' E 009°40'  
Track history (hours):
 
Tides and Currents Weather Stations Pressure Air Temp Water Temp Dewpoint Dewpoint Depression Visibility Wind Speed Wind Dir Waves Ship Positions

Bonaria

Last reported at 2017-Dec-11 16:51 UTC. Time now 2017-Dec-13 22:40 UTC.
Position N 38°08' E 013°22'.

Length 214 m; draft 7 m.

Type: Ship. MMSI: 247322400.

Date/timePositionNaut miles runAvg speedWind from/ knotsBaromVisibWave heightAir tempDewpointWater temp
2017-Dec-11 16:51N 38°08' E 013°22'0 0.0
2017-Dec-11 16:24N 38°08' E 013°22'0 0.0
2017-Dec-11 15:54N 38°08' E 013°22'0 0.0
2017-Dec-11 15:09N 38°08' E 013°22'0 0.0
2017-Dec-11 14:54N 38°08' E 013°22'0 0.0
2017-Dec-11 14:30N 38°08' E 013°22'0 0.0
2017-Dec-11 14:00N 38°08' E 013°22'0 0.0
2017-Dec-11 13:30N 38°08' E 013°22'0 0.0
2017-Dec-11 13:00N 38°08' E 013°22'0 0.0
2017-Dec-11 12:30N 38°08' E 013°22'0 0.0
2017-Dec-11 12:00N 38°08' E 013°22'0 0.0
2017-Dec-11 11:30N 38°08' E 013°22'0 0.0
2017-Dec-11 11:00N 38°08' E 013°22'0 0.0
2017-Dec-11 10:30N 38°08' E 013°22'0 0.0
2017-Dec-11 10:00N 38°08' E 013°22'0 0.0
2017-Dec-11 09:30N 38°08' E 013°22'0 0.0
2017-Dec-11 09:00N 38°08' E 013°22'0 0.0
2017-Dec-11 08:30N 38°08' E 013°22'0 0.0
2017-Dec-11 08:00N 38°08' E 013°22'0 0.0
2017-Dec-11 07:30N 38°08' E 013°22'0 0.0
2017-Dec-11 07:00N 38°08' E 013°22'0 0.0
2017-Dec-11 06:30N 38°08' E 013°22'0 0.0
2017-Dec-11 06:00N 38°08' E 013°22'0 0.0
2017-Dec-11 05:30N 38°08' E 013°22'2 4.3
2017-Dec-11 05:00N 38°09' E 013°24'4 8.9
2017-Dec-11 04:30N 38°13' E 013°25'5 9.1
2017-Dec-11 04:00N 38°18' E 013°27'5 9.3
2017-Dec-11 03:30N 38°22' E 013°28'612.0
2017-Dec-11 03:00N 38°28' E 013°30'918.6
2017-Dec-11 02:30N 38°37' E 013°32'1018.7
2017-Dec-11 02:00N 38°46' E 013°35'10720.0
2017-Dec-10 20:40N 40°31' E 014°04'320.3
2017-Dec-10 20:30N 40°34' E 014°06'1020.1
2017-Dec-10 20:00N 40°42' E 014°12'915.9
2017-Dec-10 19:28N 40°50' E 014°16'0 0.2
2017-Dec-10 18:52N 40°50' E 014°16'0 0.0
2017-Dec-10 18:22N 40°50' E 014°16'0 0.0
2017-Dec-10 17:52N 40°50' E 014°16'0 0.0
2017-Dec-10 17:22N 40°50' E 014°16'0 0.0
2017-Dec-10 16:52N 40°50' E 014°16'0 0.0
2017-Dec-10 16:22N 40°50' E 014°16'0 0.0
2017-Dec-10 15:52N 40°50' E 014°16'0 0.0
2017-Dec-10 15:22N 40°50' E 014°16'0 0.0
2017-Dec-10 14:52N 40°50' E 014°16'0 0.0
2017-Dec-10 14:22N 40°50' E 014°16'0 0.0
2017-Dec-10 13:58N 40°50' E 014°16'0 0.0
2017-Dec-10 13:28N 40°50' E 014°16'0 0.0
2017-Dec-10 12:52N 40°50' E 014°16'0 0.0
2017-Dec-10 12:28N 40°50' E 014°16'0 0.0
2017-Dec-10 11:58N 40°50' E 014°16'0 0.0
2017-Dec-10 11:28N 40°50' E 014°16'0 0.0
2017-Dec-10 10:46N 40°50' E 014°16'0 0.0
2017-Dec-10 10:28N 40°50' E 014°16'0 0.0
2017-Dec-10 09:58N 40°50' E 014°16'0 0.0
2017-Dec-10 09:28N 40°50' E 014°16'0 0.0
2017-Dec-10 08:58N 40°50' E 014°16'0 0.0
2017-Dec-10 08:28N 40°50' E 014°16'0 0.0
2017-Dec-10 07:46N 40°50' E 014°16'0 0.0
2017-Dec-10 07:28N 40°50' E 014°16'11813.2
2017-Dec-09 22:33N 38°57' E 013°34'218.0
2017-Dec-09 22:27N 38°55' E 013°34'817.6
2017-Dec-09 22:01N 38°48' E 013°34'917.4
2017-Dec-09 21:31N 38°39' E 013°34'917.4
2017-Dec-09 21:01N 38°30' E 013°32'917.5
2017-Dec-09 20:31N 38°22' E 013°29'917.7
2017-Dec-09 20:01N 38°13' E 013°27'713.4
2017-Dec-09 19:30N 38°08' E 013°22'0 0.5
2017-Dec-09 19:00N 38°08' E 013°22'0 0.0
2017-Dec-09 18:30N 38°08' E 013°22'0 0.0
2017-Dec-09 18:00N 38°08' E 013°22'0 0.0
2017-Dec-09 17:30N 38°08' E 013°22'0 0.0
2017-Dec-09 17:00N 38°08' E 013°22'0 0.0
2017-Dec-09 16:30N 38°08' E 013°22'0 0.0
2017-Dec-09 16:00N 38°08' E 013°22'0 0.0
2017-Dec-09 15:30N 38°08' E 013°22'0 0.0
2017-Dec-09 15:00N 38°08' E 013°22'0 0.0
2017-Dec-09 14:30N 38°08' E 013°22'0 0.0
2017-Dec-09 14:00N 38°08' E 013°22'0 0.0
2017-Dec-09 13:30N 38°08' E 013°22'0 0.0
2017-Dec-09 13:00N 38°08' E 013°22'0 0.0
2017-Dec-09 12:30N 38°08' E 013°22'0 0.0
2017-Dec-09 12:00N 38°08' E 013°22'0 0.0
2017-Dec-09 11:30N 38°08' E 013°22'0 0.0
2017-Dec-09 11:00N 38°08' E 013°22'0 0.0
2017-Dec-09 10:27N 38°08' E 013°22'0 0.0
2017-Dec-09 10:00N 38°08' E 013°22'0 0.0
2017-Dec-09 09:30N 38°08' E 013°22'0 0.0
2017-Dec-09 09:00N 38°08' E 013°22'0 0.0
2017-Dec-09 08:30N 38°08' E 013°22'0 0.0
2017-Dec-09 08:00N 38°08' E 013°22'0 0.0
2017-Dec-09 07:30N 38°08' E 013°22'0 0.0
2017-Dec-09 07:00N 38°08' E 013°22'0 0.0
2017-Dec-09 06:30N 38°08' E 013°22'0 0.0
2017-Dec-09 06:00N 38°08' E 013°22'0 0.0
2017-Dec-09 05:30N 38°08' E 013°22'2 3.1
2017-Dec-09 05:00N 38°08' E 013°24'611.0
2017-Dec-09 04:30N 38°14' E 013°26'510.9
2017-Dec-09 04:00N 38°19' E 013°27'510.9
2017-Dec-09 03:30N 38°24' E 013°29'611.1
2017-Dec-09 03:00N 38°30' E 013°30'919.0
2017-Dec-09 02:31N 38°39' E 013°33'1019.1
2017-Dec-09 02:00N 38°48' E 013°35'10619.4
2017-Dec-08 20:31N 40°32' E 014°06'011.4
2017-Dec-08 20:30N 40°32' E 014°07'918.3
2017-Dec-08 20:01N 40°40' E 014°11'1019.8
2017-Dec-08 19:30N 40°49' E 014°17'1 2.0
2017-Dec-08 18:51N 40°50' E 014°16'0 0.0
2017-Dec-08 18:21N 40°50' E 014°16'0 0.0
2017-Dec-08 17:45N 40°50' E 014°16'0 0.0
2017-Dec-08 16:51N 40°50' E 014°16'0 0.0
2017-Dec-08 16:21N 40°50' E 014°16'0 0.0
2017-Dec-08 15:51N 40°50' E 014°16'0 0.0
2017-Dec-08 15:21N 40°50' E 014°16'0 0.0
2017-Dec-08 14:51N 40°50' E 014°16'0 0.0
2017-Dec-08 14:21N 40°50' E 014°16'0 0.0
2017-Dec-08 13:51N 40°50' E 014°16'0 0.0
2017-Dec-08 13:21N 40°50' E 014°16'0 0.0
2017-Dec-08 12:57N 40°50' E 014°16'0 0.0
2017-Dec-08 12:21N 40°50' E 014°16'0 0.0
2017-Dec-08 11:57N 40°50' E 014°16'0 0.0
2017-Dec-08 11:27N 40°50' E 014°16'0 0.0
2017-Dec-08 10:57N 40°50' E 014°16'0 0.0
2017-Dec-08 10:27N 40°50' E 014°16'0 0.0
2017-Dec-08 09:57N 40°50' E 014°16'0 0.0
2017-Dec-08 09:27N 40°50' E 014°16'0 0.0
2017-Dec-08 08:45N 40°50' E 014°16'0 0.0
2017-Dec-08 08:27N 40°50' E 014°16'0 0.0
2017-Dec-08 07:57N 40°50' E 014°16'0 0.0
2017-Dec-08 07:27N 40°50' E 014°16'13113.6
2017-Dec-07 21:51N 38°44' E 013°35'617.6
2017-Dec-07 21:30N 38°38' E 013°34'918.0
2017-Dec-07 21:00N 38°29' E 013°31'918.1
2017-Dec-07 20:30N 38°20' E 013°28'917.6
2017-Dec-07 20:00N 38°11' E 013°26'5 9.7
2017-Dec-07 19:31N 38°08' E 013°22'0 0.3
2017-Dec-07 18:57N 38°08' E 013°22'0 0.0
2017-Dec-07 18:30N 38°08' E 013°22'0 0.0
2017-Dec-07 18:00N 38°08' E 013°22'0 0.0
2017-Dec-07 17:30N 38°08' E 013°22'0 0.0
2017-Dec-07 17:00N 38°08' E 013°22'0 0.0
2017-Dec-07 16:30N 38°08' E 013°22'0 0.0
2017-Dec-07 16:00N 38°08' E 013°22'0 0.0
2017-Dec-07 15:30N 38°08' E 013°22'0 0.0
2017-Dec-07 15:00N 38°08' E 013°22'0 0.0
2017-Dec-07 14:30N 38°08' E 013°22'0 0.0
2017-Dec-07 14:00N 38°08' E 013°22'0 0.0
2017-Dec-07 13:30N 38°08' E 013°22'0 0.0
2017-Dec-07 13:00N 38°08' E 013°22'0 0.0
2017-Dec-07 12:30N 38°08' E 013°22'0 0.0
2017-Dec-07 12:00N 38°08' E 013°22'0 0.0
2017-Dec-07 11:30N 38°08' E 013°22'0 0.0
2017-Dec-07 11:00N 38°08' E 013°22'0 0.0
2017-Dec-07 10:30N 38°08' E 013°22'0 0.0
2017-Dec-07 09:57N 38°08' E 013°22'0 0.0
2017-Dec-07 09:30N 38°08' E 013°22'0 0.0
2017-Dec-07 09:00N 38°08' E 013°22'0 0.0
2017-Dec-07 08:30N 38°08' E 013°22'0 0.0
2017-Dec-07 08:00N 38°08' E 013°22'0 0.0
2017-Dec-07 07:27N 38°08' E 013°22'0 0.0
2017-Dec-07 07:00N 38°08' E 013°22'0 0.0
2017-Dec-07 06:27N 38°08' E 013°22'0 0.0
2017-Dec-07 06:00N 38°08' E 013°22'0 0.5
2017-Dec-07 05:31N 38°08' E 013°22'4 8.0
2017-Dec-07 05:01N 38°11' E 013°25'816.5
2017-Dec-07 04:30N 38°19' E 013°27'917.3
2017-Dec-07 04:00N 38°28' E 013°30'917.6
2017-Dec-07 03:31N 38°36' E 013°32'1017.7
2017-Dec-07 02:57N 38°46' E 013°35'11317.7
2017-Dec-06 20:35N 40°36' E 014°08'  
2017-Dec-04 10:06N 40°50' E 014°16'0 0.0
2017-Dec-04 09:36N 40°50' E 014°16'0 0.1
2017-Dec-04 09:18N 40°50' E 014°16'0 0.0
2017-Dec-04 08:54N 40°50' E 014°16'0 0.0
2017-Dec-04 08:24N 40°50' E 014°16'0 0.0
2017-Dec-04 07:54N 40°50' E 014°16'0 0.0
2017-Dec-04 07:28N 40°50' E 014°16'1 2.9
2017-Dec-04 06:58N 40°49' E 014°17'244 6.9
2017-Dec-02 19:20N 38°59' E 009°33'821.0
2017-Dec-02 18:57N 39°02' E 009°24'1124.3
2017-Dec-02 18:30N 39°08' E 009°11'611.8
2017-Dec-02 18:00N 39°13' E 009°06'0 0.0
2017-Dec-02 17:29N 39°13' E 009°06'0 0.0
2017-Dec-02 16:59N 39°13' E 009°06'0 0.0
2017-Dec-02 16:29N 39°13' E 009°06'0 0.0
2017-Dec-02 15:59N 39°13' E 009°06'0 0.0
2017-Dec-02 15:29N 39°13' E 009°06'0 0.0
2017-Dec-02 14:59N 39°13' E 009°06'0 0.0
2017-Dec-02 14:29N 39°13' E 009°06'0 0.0
2017-Dec-02 13:59N 39°13' E 009°06'0 0.0
2017-Dec-02 13:26N 39°13' E 009°06'0 0.0
2017-Dec-02 12:59N 39°13' E 009°06'0 0.0
2017-Dec-02 12:29N 39°13' E 009°06'0 0.0
2017-Dec-02 11:59N 39°13' E 009°06'0 0.0
2017-Dec-02 11:29N 39°13' E 009°06'0 0.0
2017-Dec-02 10:59N 39°13' E 009°06'0 0.0
2017-Dec-02 10:29N 39°13' E 009°06'0 0.0
2017-Dec-02 09:59N 39°13' E 009°06'0 0.0
2017-Dec-02 09:29N 39°13' E 009°06'0 0.0
2017-Dec-02 08:59N 39°13' E 009°06'2 3.5
2017-Dec-02 08:30N 39°11' E 009°07'918.2
2017-Dec-02 08:00N 39°06' E 009°17'1220.1
2017-Dec-02 07:24N 38°59' E 009°30'918.2
2017-Dec-02 06:53N 39°04' E 009°40'  

Dump ship's entire track history